»·PEaware :: UAL1399 KSLC-KBOI

UAL1399 :: KSLC-KBOI

FLIGHT INFORMATION

Flight Status: Arrived
Operator:
United Airlines
More flights by this operator :: More flights under this callsign
Pilot: David C. (16084)
Aircraft: AIRBUS A320
(A320)
More flights by this aircraft type
Origin: KSLC Salt Lake City Intl
United States
Destination: KBOI Boise Air Terminal/Gowen
United States
More flights between these airports :: More routes between these airports
Route: CGULL1 TWF BROPH SPUUD3
File this flight plan on PilotEdge
Remarks:
Altitude:
(Current/Filed)
30,000ft
Speed:
(Current/Filed)
478kts
Departed: 13-Aug-19 02:42 PM
Arrived: 13-Aug-19 03:26 PM
Distance/Time
Traveled:
252nm/0:44
Distance/Time
To Go:
Arrived

Flight Plot

Page will automatically refresh every two minutes.

Flight plan parsing failed; only flown route is shown


Map Options




Map Legend


Flown Route
Filed Route
Departure Airport
Arrival Airport
Navaid (VOR, NDB)
Fix

Horizontal Profiles

Position Reports

Time Latitude Longitude Heading Altitude Ground
Speed
13-Aug-19 14:03 40.786745 -111.978273 313 4236ft 0kts
13-Aug-19 14:04 40.786745 -111.978273 313 4236ft 0kts
13-Aug-19 14:05 40.786745 -111.978273 313 4236ft 0kts
13-Aug-19 14:06 40.786745 -111.978273 313 4236ft 0kts
13-Aug-19 14:07 40.786745 -111.978273 313 4236ft 0kts
13-Aug-19 14:08 40.786745 -111.978273 313 4236ft 0kts
13-Aug-19 14:09 40.786745 -111.978273 313 4236ft 0kts
13-Aug-19 14:10 40.786745 -111.978273 313 4236ft 0kts
13-Aug-19 14:11 40.786745 -111.978273 313 4236ft 0kts
13-Aug-19 14:12 40.786745 -111.978273 313 4236ft 0kts
13-Aug-19 14:13 40.786745 -111.978273 313 4236ft 0kts
13-Aug-19 14:14 40.786745 -111.978273 313 4236ft 0kts
13-Aug-19 14:15 40.786745 -111.978273 313 4236ft 0kts
13-Aug-19 14:16 40.786745 -111.978273 313 4236ft 0kts
13-Aug-19 14:17 40.786745 -111.978273 313 4236ft 0kts
13-Aug-19 14:18 40.786745 -111.978273 313 4236ft 0kts
13-Aug-19 14:19 40.786745 -111.978273 313 4236ft 0kts
13-Aug-19 14:20 40.786745 -111.978273 313 4236ft 0kts
13-Aug-19 14:21 40.786745 -111.978273 313 4236ft 0kts
13-Aug-19 14:22 40.786745 -111.978273 313 4236ft 0kts
13-Aug-19 14:23 40.786745 -111.978273 313 4236ft 0kts
13-Aug-19 14:24 40.786745 -111.978273 313 4236ft 0kts
13-Aug-19 14:25 40.786745 -111.978273 313 4236ft 0kts
13-Aug-19 14:26 40.786745 -111.978273 313 4236ft 0kts
13-Aug-19 14:27 40.786745 -111.978273 313 4236ft 0kts
13-Aug-19 14:28 40.786745 -111.978273 313 4236ft 0kts
13-Aug-19 14:29 40.786745 -111.978273 313 4236ft 0kts
13-Aug-19 14:30 40.786538 -111.978069 318 4236ft 2kts
13-Aug-19 14:31 40.786029 -111.977934 17 4236ft 0kts
13-Aug-19 14:32 40.785975 -111.977959 19 4236ft 0kts
13-Aug-19 14:33 40.785975 -111.977959 19 4236ft 0kts
13-Aug-19 14:34 40.785975 -111.977959 19 4236ft 0kts
13-Aug-19 14:35 40.785975 -111.977959 19 4236ft 0kts
13-Aug-19 14:36 40.786172 -111.976956 116 4236ft 12kts
13-Aug-19 14:37 40.780800 -111.976016 174 4236ft 21kts
13-Aug-19 14:38 40.775257 -111.974871 173 4236ft 13kts
13-Aug-19 14:39 40.774791 -111.974758 155 4236ft 0kts
13-Aug-19 14:40 40.774487 -111.974330 99 4236ft 9kts
13-Aug-19 14:41 40.780901 -111.973889 354 4236ft 96kts
13-Aug-19 14:42 40.825857 -111.982079 321 5500ft 198kts
13-Aug-19 14:43 40.863576 -112.044503 307 7623ft 235kts
13-Aug-19 14:44 40.907545 -112.119055 305 9889ft 277kts
13-Aug-19 14:45 40.954373 -112.207547 303 12328ft 306kts
13-Aug-19 14:46 41.007450 -112.307785 303 14105ft 345kts
13-Aug-19 14:47 41.063606 -112.413495 307 16466ft 355kts
13-Aug-19 14:48 41.145768 -112.489590 324 18526ft 370kts
13-Aug-19 14:49 41.230011 -112.570989 320 20368ft 378kts
13-Aug-19 14:50 41.309111 -112.665403 309 22066ft 384kts
13-Aug-19 14:51 41.381979 -112.771986 309 23605ft 393kts
13-Aug-19 14:52 41.456672 -112.884645 308 24602ft 411kts
13-Aug-19 14:53 41.532774 -113.001389 308 25853ft 418kts
13-Aug-19 14:54 41.609946 -113.120121 308 27028ft 425kts
13-Aug-19 14:55 41.687928 -113.240567 308 28133ft 430kts
13-Aug-19 14:56 41.767009 -113.363193 308 29150ft 436kts
13-Aug-19 14:57 41.846572 -113.487103 308 30175ft 442kts
13-Aug-19 14:58 41.928675 -113.615464 308 30192ft 456kts
13-Aug-19 14:59 42.011539 -113.745654 307 30191ft 455kts
13-Aug-19 15:00 42.093965 -113.875700 307 30189ft 454kts
13-Aug-19 15:01 42.176044 -114.005742 307 30184ft 454kts
13-Aug-19 15:02 42.258440 -114.136136 307 30187ft 454kts
13-Aug-19 15:03 42.340573 -114.266737 307 30191ft 454kts
13-Aug-19 15:04 42.422608 -114.397749 307 30150ft 458kts
13-Aug-19 15:05 42.505773 -114.530845 308 30183ft 462kts
13-Aug-19 15:06 42.588597 -114.662953 307 29991ft 460kts
13-Aug-19 15:07 42.671721 -114.796219 307 26838ft 464kts
13-Aug-19 15:08 42.757819 -114.928156 311 23717ft 463kts
13-Aug-19 15:09 42.844978 -115.053434 311 21233ft 445kts
13-Aug-19 15:10 42.928464 -115.173907 311 18702ft 430kts
13-Aug-19 15:11 43.010202 -115.292629 311 15900ft 425kts
13-Aug-19 15:12 43.089557 -115.408354 311 13574ft 392kts
13-Aug-19 15:13 43.156636 -115.506681 311 12838ft 326kts
13-Aug-19 15:14 43.214658 -115.591598 311 12325ft 287kts
13-Aug-19 15:15 43.268647 -115.670802 311 11226ft 284kts
13-Aug-19 15:16 43.323816 -115.742470 315 10680ft 267kts
13-Aug-19 15:17 43.374823 -115.808087 315 10206ft 237kts
13-Aug-19 15:18 43.419493 -115.868722 313 9322ft 207kts
13-Aug-19 15:19 43.458513 -115.922565 313 7629ft 194kts
13-Aug-19 15:20 43.483799 -115.984854 295 6153ft 183kts
13-Aug-19 15:21 43.505494 -116.048001 295 5258ft 182kts
13-Aug-19 15:22 43.526740 -116.109953 295 4085ft 162kts
13-Aug-19 15:23 43.542457 -116.162186 297 3624ft 145kts
13-Aug-19 15:24 43.559700 -116.212377 296 2893ft 142kts
13-Aug-19 15:25 43.567119 -116.229793 27 2880ft 16kts
13-Aug-19 15:26 43.567121 -116.224280 115 2880ft 23kts
13-Aug-19 15:27 43.567190 -116.220725 22 2880ft 0kts
13-Aug-19 15:28 43.567190 -116.220725 22 2880ft 0kts

Navigation Log

Ident Type
Flight plan parsing failed, navigation log unavailable